createdAt,value
2018-01-05T00:00:21.853Z,992.79
2018-01-05T00:01:31.051Z,992.75
2018-01-05T00:02:39.988Z,992.81
2018-01-05T00:03:49.182Z,992.75
2018-01-05T00:04:58.385Z,992.63
2018-01-05T00:06:08.110Z,992.68
2018-01-05T00:07:17.326Z,992.76
2018-01-05T00:08:26.262Z,992.75
2018-01-05T00:09:35.486Z,992.74
2018-01-05T00:10:44.697Z,992.77
2018-01-05T00:11:53.899Z,992.72
2018-01-05T00:13:03.091Z,992.75
2018-01-05T00:14:12.051Z,992.78
2018-01-05T00:15:21.258Z,992.66
2018-01-05T00:16:30.469Z,992.71
2018-01-05T00:17:39.404Z,992.74
2018-01-05T00:18:48.894Z,992.69
2018-01-05T00:19:58.375Z,992.71
2018-01-05T00:21:07.578Z,992.67
2018-01-05T00:22:16.771Z,992.63
2018-01-05T00:23:25.708Z,992.6
2018-01-05T00:24:34.906Z,992.64
2018-01-05T00:25:43.840Z,992.55
2018-01-05T00:26:53.316Z,992.56
2018-01-05T00:28:02.267Z,992.52
2018-01-05T00:29:11.204Z,992.56
2018-01-05T00:30:20.410Z,992.54
2018-01-05T00:31:29.357Z,992.57
2018-01-05T00:32:38.567Z,992.66
2018-01-05T00:33:47.771Z,992.64
2018-01-05T00:34:56.713Z,992.6
2018-01-05T00:36:06.192Z,992.59
2018-01-05T00:37:15.401Z,992.61
2018-01-05T00:38:25.195Z,992.55
2018-01-05T00:39:34.405Z,992.56
2018-01-05T00:40:43.103Z,992.6
2018-01-05T00:41:52.300Z,992.57
2018-01-05T00:43:01.306Z,992.59
2018-01-05T00:44:09.976Z,992.6
2018-01-05T00:45:19.193Z,992.6
2018-01-05T00:46:28.142Z,992.63
2018-01-05T00:47:36.863Z,992.63
2018-01-05T00:48:45.799Z,992.6
2018-01-05T00:49:54.739Z,992.65
2018-01-05T00:51:03.937Z,992.71
2018-01-05T00:52:12.899Z,992.71
2018-01-05T00:53:21.589Z,992.62
2018-01-05T00:54:30.542Z,992.71
2018-01-05T00:55:39.485Z,992.8
2018-01-05T00:56:48.687Z,992.82
2018-01-05T00:57:57.639Z,992.84
2018-01-05T00:59:06.592Z,992.77
2018-01-05T01:00:15.535Z,992.87
2018-01-05T01:01:24.478Z,992.86
2018-01-05T01:02:33.938Z,992.8
2018-01-05T01:03:43.405Z,992.86
2018-01-05T01:04:52.346Z,992.83
2018-01-05T01:06:01.293Z,992.77
2018-01-05T01:07:09.973Z,992.8
2018-01-05T01:08:19.438Z,992.89
2018-01-05T01:09:28.638Z,992.81
2018-01-05T01:10:37.591Z,992.8
2018-01-05T01:11:46.534Z,992.81
2018-01-05T01:12:55.753Z,992.73
2018-01-05T01:14:04.960Z,992.75
2018-01-05T01:15:14.161Z,992.73
2018-01-05T01:16:23.631Z,992.71
2018-01-05T01:17:32.566Z,992.71
2018-01-05T01:18:42.036Z,992.71
2018-01-05T01:19:51.242Z,992.74
2018-01-05T01:21:00.436Z,992.73
2018-01-05T01:22:09.897Z,992.74
2018-01-05T01:23:19.120Z,992.7
2018-01-05T01:24:28.604Z,992.72
2018-01-05T01:25:37.287Z,992.71
2018-01-05T01:26:46.493Z,992.79
2018-01-05T01:27:55.963Z,992.73
2018-01-05T01:29:05.176Z,992.78
2018-01-05T01:30:14.118Z,992.84
2018-01-05T01:31:23.070Z,992.85
2018-01-05T01:32:32.283Z,992.89
2018-01-05T01:33:41.260Z,992.94
2018-01-05T01:34:50.463Z,992.9
2018-01-05T01:35:59.663Z,992.9
2018-01-05T01:37:08.618Z,992.91
2018-01-05T01:38:17.568Z,992.92
2018-01-05T01:39:26.529Z,992.84
2018-01-05T01:40:35.473Z,992.89
2018-01-05T01:41:45.189Z,992.85
2018-01-05T01:42:54.401Z,992.94
2018-01-05T01:44:03.613Z,992.87
2018-01-05T01:45:12.814Z,992.86
2018-01-05T01:46:22.028Z,992.79
2018-01-05T01:47:31.506Z,992.69
2018-01-05T01:48:40.485Z,992.66
2018-01-05T01:49:49.422Z,992.56
2018-01-05T01:50:58.635Z,992.64
2018-01-05T01:52:07.318Z,992.72
2018-01-05T01:53:16.524Z,992.72
2018-01-05T01:54:25.479Z,992.74
2018-01-05T01:55:34.949Z,992.72
2018-01-05T01:56:44.152Z,992.76
2018-01-05T01:57:53.615Z,992.72
2018-01-05T01:59:03.096Z,992.74
2018-01-05T02:00:12.037Z,992.71
2018-01-05T02:01:21.265Z,992.71
2018-01-05T02:02:29.945Z,992.7
2018-01-05T02:03:38.639Z,992.68
2018-01-05T02:04:47.860Z,992.68
2018-01-05T02:05:57.063Z,992.7
2018-01-05T02:07:06.012Z,992.7
2018-01-05T02:08:15.222Z,992.6
2018-01-05T02:09:23.904Z,992.61
2018-01-05T02:10:33.650Z,992.63
2018-01-05T02:11:42.622Z,992.57
2018-01-05T02:12:51.567Z,992.55
2018-01-05T02:14:00.521Z,992.49
2018-01-05T02:15:09.748Z,992.51
2018-01-05T02:16:18.423Z,992.4
2018-01-05T02:17:27.631Z,992.46
2018-01-05T02:18:37.124Z,992.46
2018-01-05T02:19:46.598Z,992.45
2018-01-05T02:20:55.548Z,992.39
2018-01-05T02:22:04.753Z,992.4
2018-01-05T02:23:13.953Z,992.33
2018-01-05T02:24:23.157Z,992.38
2018-01-05T02:25:32.091Z,992.39
2018-01-05T02:26:41.820Z,992.42
2018-01-05T02:27:51.276Z,992.39
2018-01-05T02:29:00.213Z,992.34
2018-01-05T02:30:09.683Z,992.36
2018-01-05T02:31:18.953Z,992.29
2018-01-05T02:32:27.903Z,992.33
2018-01-05T02:33:37.380Z,992.32
2018-01-05T02:34:46.325Z,992.2
2018-01-05T02:35:55.526Z,992.23
2018-01-05T02:37:04.727Z,992.24
2018-01-05T02:38:14.271Z,992.28
2018-01-05T02:39:23.239Z,992.34
2018-01-05T02:40:31.909Z,992.33
2018-01-05T02:41:40.598Z,992.39
2018-01-05T02:42:49.807Z,992.34
2018-01-05T02:43:59.023Z,992.34
2018-01-05T02:45:08.216Z,992.29
2018-01-05T02:46:17.431Z,992.3
2018-01-05T02:47:26.370Z,992.22
2018-01-05T02:48:35.840Z,992.17
2018-01-05T02:49:45.056Z,992.11
2018-01-05T02:50:53.737Z,992.14
2018-01-05T02:52:02.953Z,992.11
2018-01-05T02:53:11.895Z,992.15
2018-01-05T02:54:21.095Z,992.13
2018-01-05T02:55:30.300Z,992.02
2018-01-05T02:56:39.759Z,992
2018-01-05T02:57:49.220Z,991.99
2018-01-05T02:58:58.438Z,991.98
2018-01-05T03:00:07.147Z,992.06
2018-01-05T03:01:16.346Z,992.04
2018-01-05T03:02:26.068Z,992
2018-01-05T03:03:35.287Z,992
2018-01-05T03:04:43.975Z,991.96
2018-01-05T03:05:52.911Z,991.98
2018-01-05T03:07:02.115Z,991.94
2018-01-05T03:08:11.063Z,991.9
2018-01-05T03:09:20.793Z,991.87
2018-01-05T03:10:30.028Z,991.8
2018-01-05T03:11:38.960Z,991.83
2018-01-05T03:12:48.463Z,991.89
2018-01-05T03:13:57.414Z,991.89
2018-01-05T03:15:06.618Z,991.92
2018-01-05T03:16:15.565Z,991.86
2018-01-05T03:17:25.294Z,991.77
2018-01-05T03:18:34.757Z,991.74
2018-01-05T03:19:43.973Z,991.79
2018-01-05T03:20:52.656Z,991.78
2018-01-05T03:22:02.129Z,991.76
2018-01-05T03:23:11.336Z,991.76
2018-01-05T03:24:20.597Z,991.73
2018-01-05T03:25:29.556Z,991.79
2018-01-05T03:26:38.761Z,991.81
2018-01-05T03:27:47.976Z,991.78
2018-01-05T03:28:56.658Z,991.77
2018-01-05T03:30:05.602Z,991.78
2018-01-05T03:31:15.384Z,991.72
2018-01-05T03:32:24.864Z,991.74
2018-01-05T03:33:34.084Z,991.66
2018-01-05T03:34:43.295Z,991.62
2018-01-05T03:35:52.240Z,991.56
2018-01-05T03:37:01.702Z,991.56
2018-01-05T03:38:10.380Z,991.5
2018-01-05T03:39:19.577Z,991.48
2018-01-05T03:40:28.781Z,991.47
2018-01-05T03:41:37.996Z,991.47
2018-01-05T03:42:47.466Z,991.45
2018-01-05T03:43:56.929Z,991.43
2018-01-05T03:45:06.136Z,991.4
2018-01-05T03:46:15.344Z,991.44
2018-01-05T03:47:24.807Z,991.39
2018-01-05T03:48:34.033Z,991.42
2018-01-05T03:49:42.967Z,991.45
2018-01-05T03:50:51.914Z,991.47
2018-01-05T03:52:01.121Z,991.54
2018-01-05T03:53:10.075Z,991.48
2018-01-05T03:54:19.284Z,991.43
2018-01-05T03:55:28.236Z,991.46
2018-01-05T03:56:36.926Z,991.48
2018-01-05T03:57:45.884Z,991.45
2018-01-05T03:58:55.348Z,991.51
2018-01-05T04:00:04.577Z,991.53
2018-01-05T04:01:13.514Z,991.46
2018-01-05T04:02:22.722Z,991.46
2018-01-05T04:03:31.402Z,991.36
2018-01-05T04:04:40.666Z,991.36
2018-01-05T04:05:50.408Z,991.32
2018-01-05T04:06:59.086Z,991.2
2018-01-05T04:08:08.818Z,991.23
2018-01-05T04:09:18.283Z,991.19
2018-01-05T04:10:27.749Z,991.23
2018-01-05T04:11:36.952Z,991.25
2018-01-05T04:12:45.634Z,991.19
2018-01-05T04:13:54.583Z,991.23
2018-01-05T04:15:03.784Z,991.15
2018-01-05T04:16:12.722Z,991.15
2018-01-05T04:17:21.669Z,991.21
2018-01-05T04:18:31.419Z,991.11
2018-01-05T04:19:40.624Z,991.15
2018-01-05T04:20:49.828Z,991.13
2018-01-05T04:21:59.031Z,991.14
2018-01-05T04:23:07.986Z,991.17
2018-01-05T04:24:16.934Z,991.16
2018-01-05T04:25:25.882Z,991.12
2018-01-05T04:26:35.082Z,991.2
2018-01-05T04:27:44.022Z,991.13
2018-01-05T04:28:52.704Z,991.13
2018-01-05T04:30:02.185Z,991.08
2018-01-05T04:31:11.654Z,991.08
2018-01-05T04:32:20.396Z,991.06
2018-01-05T04:33:29.601Z,991.11
2018-01-05T04:34:38.544Z,991.12
2018-01-05T04:35:47.742Z,991.16
2018-01-05T04:36:56.696Z,991.18
2018-01-05T04:38:05.442Z,991.19
2018-01-05T04:39:14.666Z,991.22
2018-01-05T04:40:23.680Z,991.16
2018-01-05T04:41:32.626Z,991.23
2018-01-05T04:42:42.118Z,991.16
2018-01-05T04:43:51.582Z,991.2
2018-01-05T04:45:00.262Z,991.2
2018-01-05T04:46:09.215Z,991.21
2018-01-05T04:47:18.940Z,991.16
2018-01-05T04:48:27.624Z,991.18
2018-01-05T04:49:36.844Z,991.18
2018-01-05T04:50:45.791Z,991.14
2018-01-05T04:51:55.007Z,991.07
2018-01-05T04:53:04.207Z,991.11
2018-01-05T04:54:13.430Z,991.19
2018-01-05T04:55:22.393Z,991.18
2018-01-05T04:56:31.592Z,991.19
2018-01-05T04:57:40.795Z,991.2
2018-01-05T04:58:50.006Z,991.17
2018-01-05T04:59:59.728Z,991.1
2018-01-05T05:01:08.427Z,991.18
2018-01-05T05:02:17.641Z,991.15
2018-01-05T05:03:26.581Z,991.05
2018-01-05T05:04:36.110Z,991.11
2018-01-05T05:05:44.791Z,991.06
2018-01-05T05:06:53.467Z,991.13
2018-01-05T05:08:02.414Z,991.11
2018-01-05T05:09:11.615Z,991.16
2018-01-05T05:10:20.819Z,991.16
2018-01-05T05:11:29.761Z,991.17
2018-01-05T05:12:38.710Z,991.13
2018-01-05T05:13:47.913Z,991.16
2018-01-05T05:14:57.138Z,991.19
2018-01-05T05:16:06.088Z,991.23
2018-01-05T05:17:15.309Z,991.24
2018-01-05T05:18:24.258Z,991.26
2018-01-05T05:19:33.466Z,991.26
2018-01-05T05:20:42.955Z,991.23
2018-01-05T05:21:52.427Z,991.28
2018-01-05T05:23:02.157Z,991.34
2018-01-05T05:24:11.890Z,991.34
2018-01-05T05:25:21.093Z,991.28
2018-01-05T05:26:30.828Z,991.29
2018-01-05T05:27:40.297Z,991.3
2018-01-05T05:28:49.500Z,991.33
2018-01-05T05:29:58.451Z,991.36
2018-01-05T05:31:07.127Z,991.42
2018-01-05T05:32:16.851Z,991.44
2018-01-05T05:33:25.531Z,991.38
2018-01-05T05:34:34.763Z,991.33
2018-01-05T05:35:44.237Z,991.33
2018-01-05T05:36:53.702Z,991.3
2018-01-05T05:38:02.905Z,991.29
2018-01-05T05:39:12.123Z,991.3
2018-01-05T05:40:21.327Z,991.33
2018-01-05T05:41:30.279Z,991.32
2018-01-05T05:42:39.484Z,991.33
2018-01-05T05:43:48.170Z,991.31
2018-01-05T05:44:57.112Z,991.34
2018-01-05T05:46:06.847Z,991.24
2018-01-05T05:47:15.535Z,991.27
2018-01-05T05:48:24.793Z,991.3
2018-01-05T05:49:33.996Z,991.37
2018-01-05T05:50:42.968Z,991.39
2018-01-05T05:51:51.912Z,991.43
2018-01-05T05:53:01.383Z,991.36
2018-01-05T05:54:10.867Z,991.39
2018-01-05T05:55:20.087Z,991.3
2018-01-05T05:56:28.774Z,991.28
2018-01-05T05:57:37.723Z,991.33
2018-01-05T05:58:47.190Z,991.4
2018-01-05T05:59:56.654Z,991.37
2018-01-05T06:01:05.854Z,991.45
2018-01-05T06:02:15.062Z,991.45
2018-01-05T06:03:24.004Z,991.42
2018-01-05T06:04:32.692Z,991.41
2018-01-05T06:05:42.230Z,991.48
2018-01-05T06:06:51.440Z,991.46
2018-01-05T06:08:00.403Z,991.57
2018-01-05T06:09:09.359Z,991.57
2018-01-05T06:10:18.044Z,991.55
2018-01-05T06:11:26.985Z,991.66
2018-01-05T06:12:35.915Z,991.65
2018-01-05T06:13:44.594Z,991.57
2018-01-05T06:14:53.530Z,991.67
2018-01-05T06:16:02.476Z,991.66
2018-01-05T06:17:11.425Z,991.67
2018-01-05T06:18:20.891Z,991.66
2018-01-05T06:19:30.617Z,991.64
2018-01-05T06:20:39.564Z,991.66
2018-01-05T06:21:49.018Z,991.65
2018-01-05T06:22:57.959Z,991.66
2018-01-05T06:24:07.427Z,991.69
2018-01-05T06:25:16.374Z,991.7
2018-01-05T06:26:25.651Z,991.63
2018-01-05T06:27:34.603Z,991.79
2018-01-05T06:28:43.281Z,991.85
2018-01-05T06:29:52.488Z,991.76
2018-01-05T06:31:01.698Z,991.7
2018-01-05T06:32:10.658Z,991.76
2018-01-05T06:33:19.342Z,991.78
2018-01-05T06:34:28.284Z,991.67
2018-01-05T06:35:36.980Z,991.84
2018-01-05T06:36:46.174Z,991.86
2018-01-05T06:37:55.136Z,991.88
2018-01-05T06:39:04.356Z,991.88
2018-01-05T06:40:13.576Z,991.87
2018-01-05T06:41:22.523Z,991.95
2018-01-05T06:42:31.745Z,991.91
2018-01-05T06:43:41.020Z,991.97
2018-01-05T06:44:49.959Z,991.93
2018-01-05T06:45:59.426Z,991.89
2018-01-05T06:47:08.374Z,991.94
2018-01-05T06:48:17.586Z,991.83
2018-01-05T06:49:26.262Z,991.9
2018-01-05T06:50:35.727Z,991.95
2018-01-05T06:51:45.460Z,991.86
2018-01-05T06:52:54.676Z,991.94
2018-01-05T06:54:03.641Z,991.96
2018-01-05T06:55:12.844Z,991.9
2018-01-05T06:56:22.325Z,991.95
2018-01-05T06:57:31.267Z,991.95
2018-01-05T06:58:40.221Z,991.9
2018-01-05T06:59:49.441Z,992.04
2018-01-05T07:00:58.377Z,991.98
2018-01-05T07:02:07.583Z,992.01
2018-01-05T07:03:16.526Z,992.04
2018-01-05T07:04:25.729Z,992
2018-01-05T07:05:34.410Z,992.04
2018-01-05T07:06:43.353Z,992.08
2018-01-05T07:07:52.820Z,992.06
2018-01-05T07:09:02.297Z,992.06
2018-01-05T07:10:11.515Z,992.11
2018-01-05T07:11:20.767Z,992.1
2018-01-05T07:12:29.705Z,992.05
2018-01-05T07:13:39.177Z,992.08
2018-01-05T07:14:48.383Z,992.02
2018-01-05T07:15:57.072Z,992.05
2018-01-05T07:17:06.283Z,992.06
2018-01-05T07:18:15.760Z,992.09
2018-01-05T07:19:24.715Z,992.04
2018-01-05T07:20:33.652Z,992.04
2018-01-05T07:21:42.594Z,992.06
2018-01-05T07:22:51.807Z,992.03
2018-01-05T07:24:00.750Z,992.04
2018-01-05T07:25:09.954Z,991.99
2018-01-05T07:26:19.434Z,992.07
2018-01-05T07:27:28.450Z,992.07
2018-01-05T07:28:37.402Z,992.2
2018-01-05T07:29:46.883Z,992.23
2018-01-05T07:30:55.849Z,992.27
2018-01-05T07:32:05.057Z,992.28
2018-01-05T07:33:13.741Z,992.3
2018-01-05T07:34:22.706Z,992.33
2018-01-05T07:35:31.646Z,992.36
2018-01-05T07:36:40.594Z,992.32
2018-01-05T07:37:49.586Z,992.41
2018-01-05T07:38:58.480Z,992.43
2018-01-05T07:40:07.692Z,992.5
2018-01-05T07:41:16.636Z,992.49
2018-01-05T07:42:25.892Z,992.57
2018-01-05T07:43:34.849Z,992.52
2018-01-05T07:44:43.796Z,992.49
2018-01-05T07:45:53.011Z,992.49
2018-01-05T07:47:02.226Z,992.52
2018-01-05T07:48:10.905Z,992.58
2018-01-05T07:49:20.395Z,992.48
2018-01-05T07:50:29.883Z,992.55
2018-01-05T07:51:38.599Z,992.59
2018-01-05T07:52:47.820Z,992.53
2018-01-05T07:53:56.799Z,992.53
2018-01-05T07:55:06.067Z,992.59
2018-01-05T07:56:15.292Z,992.58
2018-01-05T07:57:24.267Z,992.64
2018-01-05T07:58:33.559Z,992.72
2018-01-05T07:59:43.029Z,992.73
2018-01-05T08:00:51.990Z,992.73
2018-01-05T08:02:01.201Z,992.8
2018-01-05T08:03:10.143Z,992.84
2018-01-05T08:04:19.878Z,992.88
2018-01-05T08:05:29.613Z,992.93
2018-01-05T08:06:38.826Z,992.93
2018-01-05T08:07:48.040Z,992.92
2018-01-05T08:08:57.272Z,992.91
2018-01-05T08:10:06.111Z,992.95
2018-01-05T08:11:15.626Z,993.07
2018-01-05T08:12:25.144Z,993.12
2018-01-05T08:13:34.287Z,993.1
2018-01-05T08:14:44.077Z,993.1
2018-01-05T08:15:53.028Z,993.02
2018-01-05T08:17:01.989Z,992.98
2018-01-05T08:18:11.465Z,993.02
2018-01-05T08:19:20.687Z,993.04
2018-01-05T08:20:29.629Z,993.15
2018-01-05T08:21:38.571Z,993.17
2018-01-05T08:22:48.041Z,993.14
2018-01-05T08:23:57.248Z,993.18
2018-01-05T08:25:05.930Z,993.2
2018-01-05T08:26:14.865Z,993.22
2018-01-05T08:27:24.070Z,993.18
2018-01-05T08:28:33.276Z,993.18
2018-01-05T08:29:42.227Z,993.14
2018-01-05T08:30:51.187Z,993.21
2018-01-05T08:32:00.392Z,993.21
2018-01-05T08:33:09.346Z,993.22
2018-01-05T08:34:18.548Z,993.29
2018-01-05T08:35:27.227Z,993.32
2018-01-05T08:36:36.443Z,993.33
2018-01-05T08:37:45.659Z,993.3
2018-01-05T08:38:55.133Z,993.41
2018-01-05T08:40:04.341Z,993.48
2018-01-05T08:41:13.572Z,993.47
2018-01-05T08:42:22.514Z,993.46
2018-01-05T08:43:31.729Z,993.45
2018-01-05T08:44:41.203Z,993.49
2018-01-05T08:45:50.429Z,993.53
2018-01-05T08:46:59.907Z,993.56
2018-01-05T08:48:09.394Z,993.59
2018-01-05T08:49:18.603Z,993.61
2018-01-05T08:50:27.836Z,993.59
2018-01-05T08:51:37.320Z,993.63
2018-01-05T08:52:46.258Z,993.6
2018-01-05T08:53:56.256Z,993.58
2018-01-05T08:55:05.481Z,993.56
2018-01-05T08:56:14.684Z,993.55
2018-01-05T08:57:23.368Z,993.43
2018-01-05T08:58:33.393Z,993.46
2018-01-05T08:59:42.602Z,993.51
2018-01-05T09:00:51.287Z,993.56
2018-01-05T09:02:00.516Z,993.59
2018-01-05T09:03:09.770Z,993.6
2018-01-05T09:04:19.243Z,993.68
2018-01-05T09:05:28.448Z,993.68
2018-01-05T09:06:37.134Z,993.58
2018-01-05T09:07:46.874Z,993.47
2018-01-05T09:08:55.817Z,993.45
2018-01-05T09:10:05.030Z,993.44
2018-01-05T09:11:13.709Z,993.5
2018-01-05T09:12:23.187Z,993.47
2018-01-05T09:13:32.144Z,993.46
2018-01-05T09:14:41.098Z,993.51
2018-01-05T09:15:50.573Z,993.53
2018-01-05T09:16:59.515Z,993.61
2018-01-05T09:18:08.723Z,993.6
2018-01-05T09:19:17.403Z,993.64
2018-01-05T09:20:26.359Z,993.64
2018-01-05T09:21:35.304Z,993.64
2018-01-05T09:22:44.250Z,993.58
2018-01-05T09:23:52.941Z,993.61
2018-01-05T09:25:02.148Z,993.68
2018-01-05T09:26:11.357Z,993.64
2018-01-05T09:27:20.579Z,993.61
2018-01-05T09:28:30.064Z,993.52
2018-01-05T09:29:39.021Z,993.54
2018-01-05T09:30:47.727Z,993.53
2018-01-05T09:31:56.949Z,993.6
2018-01-05T09:33:06.154Z,993.56
2018-01-05T09:34:15.108Z,993.6
2018-01-05T09:35:24.045Z,993.59
2018-01-05T09:36:32.998Z,993.61
2018-01-05T09:37:42.481Z,993.64
2018-01-05T09:38:51.700Z,993.59
2018-01-05T09:40:00.921Z,993.54
2018-01-05T09:41:09.611Z,993.47
2018-01-05T09:42:18.556Z,993.48
2018-01-05T09:43:28.287Z,993.52
2018-01-05T09:44:37.502Z,993.52
2018-01-05T09:45:47.234Z,993.57
2018-01-05T09:46:56.175Z,993.53
2018-01-05T09:48:04.860Z,993.55
2018-01-05T09:49:14.096Z,993.5
2018-01-05T09:50:23.041Z,993.49
2018-01-05T09:51:32.254Z,993.48
2018-01-05T09:52:41.482Z,993.46
2018-01-05T09:53:50.431Z,993.43
2018-01-05T09:54:59.388Z,993.41
2018-01-05T09:56:08.604Z,993.45
2018-01-05T09:57:17.814Z,993.49
2018-01-05T09:58:26.767Z,993.42
2018-01-05T09:59:35.569Z,993.47
2018-01-05T10:00:44.785Z,993.43
2018-01-05T10:01:53.757Z,993.52
2018-01-05T10:03:03.266Z,993.54
2018-01-05T10:04:11.925Z,993.49
2018-01-05T10:05:21.410Z,993.55
2018-01-05T10:06:31.142Z,993.45
2018-01-05T10:07:40.098Z,993.48
2018-01-05T10:08:48.788Z,993.51
2018-01-05T10:09:57.999Z,993.5
2018-01-05T10:11:07.220Z,993.57
2018-01-05T10:12:16.966Z,993.59
2018-01-05T10:13:26.893Z,993.64
2018-01-05T10:14:35.587Z,993.69
2018-01-05T10:15:44.276Z,993.68
2018-01-05T10:16:53.486Z,993.71
2018-01-05T10:18:02.434Z,993.67
2018-01-05T10:19:12.181Z,993.71
2018-01-05T10:20:21.128Z,993.72
2018-01-05T10:21:30.381Z,993.75
2018-01-05T10:22:39.934Z,993.71
2018-01-05T10:23:49.666Z,993.67
2018-01-05T10:24:59.138Z,993.73
2018-01-05T10:26:08.092Z,993.68
2018-01-05T10:27:17.040Z,993.67
2018-01-05T10:28:26.819Z,993.6
2018-01-05T10:29:36.028Z,993.51
2018-01-05T10:30:45.242Z,993.51
2018-01-05T10:31:54.448Z,993.55
2018-01-05T10:33:03.922Z,993.55
2018-01-05T10:34:13.406Z,993.56
2018-01-05T10:35:22.882Z,993.54
2018-01-05T10:36:31.835Z,993.47
2018-01-05T10:37:41.066Z,993.47
2018-01-05T10:38:50.308Z,993.4
2018-01-05T10:39:59.529Z,993.4
2018-01-05T10:41:08.759Z,993.34
2018-01-05T10:42:18.228Z,993.36
2018-01-05T10:43:27.444Z,993.39
2018-01-05T10:44:36.405Z,993.34
2018-01-05T10:45:45.351Z,993.34
2018-01-05T10:46:54.291Z,993.35
2018-01-05T10:48:03.241Z,993.37
2018-01-05T10:49:12.468Z,993.42
2018-01-05T10:50:21.412Z,993.49
2018-01-05T10:51:30.620Z,993.45
2018-01-05T10:52:39.819Z,993.45
2018-01-05T10:53:49.310Z,993.5
2018-01-05T10:54:58.284Z,993.53
2018-01-05T10:56:07.226Z,993.47
2018-01-05T10:57:16.450Z,993.55
2018-01-05T10:58:25.661Z,993.52
2018-01-05T10:59:34.869Z,993.59
2018-01-05T11:00:43.818Z,993.58
2018-01-05T11:01:52.760Z,993.59
2018-01-05T11:03:02.503Z,993.56
2018-01-05T11:04:11.448Z,993.6
2018-01-05T11:05:20.665Z,993.61
2018-01-05T11:06:29.877Z,993.61
2018-01-05T11:07:38.822Z,993.58
2018-01-05T11:08:47.773Z,993.61
2018-01-05T11:09:56.985Z,993.56
2018-01-05T11:11:06.204Z,993.6
2018-01-05T11:12:15.413Z,993.63
2018-01-05T11:13:24.373Z,993.63
2018-01-05T11:14:33.334Z,993.62
2018-01-05T11:15:42.289Z,993.62
2018-01-05T11:16:51.499Z,993.6
2018-01-05T11:18:00.736Z,993.64
2018-01-05T11:19:09.954Z,993.64
2018-01-05T11:20:19.425Z,993.7
2018-01-05T11:21:28.394Z,993.71
2018-01-05T11:22:37.873Z,993.7
2018-01-05T11:23:46.838Z,993.7
2018-01-05T11:24:56.309Z,993.68
2018-01-05T11:26:05.532Z,993.66
2018-01-05T11:27:14.555Z,993.69
2018-01-05T11:28:24.034Z,993.71
2018-01-05T11:29:33.519Z,993.73
2018-01-05T11:30:42.977Z,993.73
2018-01-05T11:31:52.214Z,993.71
2018-01-05T11:33:01.419Z,993.75
2018-01-05T11:34:10.895Z,993.78
2018-01-05T11:35:20.627Z,993.77
2018-01-05T11:36:30.115Z,993.78
2018-01-05T11:37:39.340Z,993.75
2018-01-05T11:38:48.284Z,993.7
2018-01-05T11:39:57.490Z,993.68
2018-01-05T11:41:06.700Z,993.65
2018-01-05T11:42:15.652Z,993.59
2018-01-05T11:43:24.866Z,993.6
2018-01-05T11:44:34.073Z,993.65
2018-01-05T11:45:43.031Z,993.64
2018-01-05T11:46:52.057Z,993.67
2018-01-05T11:48:01.004Z,993.65
2018-01-05T11:49:09.964Z,993.65
2018-01-05T11:50:18.914Z,993.59
2018-01-05T11:51:28.656Z,993.59
2018-01-05T11:52:37.892Z,993.65
2018-01-05T11:53:47.380Z,993.7
2018-01-05T11:54:56.072Z,993.75
2018-01-05T11:56:05.298Z,993.72
2018-01-05T11:57:14.505Z,993.7
2018-01-05T11:58:23.710Z,993.72
2018-01-05T11:59:32.395Z,993.71
2018-01-05T12:00:42.201Z,993.73
2018-01-05T12:01:51.155Z,993.7
2018-01-05T12:03:00.381Z,993.69
2018-01-05T12:04:09.602Z,993.67
2018-01-05T12:05:18.558Z,993.53
2018-01-05T12:06:28.025Z,993.51
2018-01-05T12:07:36.712Z,993.51
2018-01-05T12:08:45.666Z,993.49
2018-01-05T12:09:54.620Z,993.51
2018-01-05T12:11:03.832Z,993.48
2018-01-05T12:12:13.036Z,993.44
2018-01-05T12:13:22.236Z,993.41
2018-01-05T12:14:31.462Z,993.35
2018-01-05T12:15:40.939Z,993.39
2018-01-05T12:16:49.884Z,993.38
2018-01-05T12:17:59.095Z,993.43
2018-01-05T12:19:08.321Z,993.37
2018-01-05T12:20:17.529Z,993.37
2018-01-05T12:21:26.745Z,993.34
2018-01-05T12:22:35.691Z,993.38
2018-01-05T12:23:44.911Z,993.41
2018-01-05T12:24:53.859Z,993.29
2018-01-05T12:26:02.805Z,993.25
2018-01-05T12:27:11.760Z,993.22
2018-01-05T12:28:20.714Z,993.15
2018-01-05T12:29:29.653Z,993.19
2018-01-05T12:30:38.872Z,993.21
2018-01-05T12:31:48.645Z,993.14
2018-01-05T12:32:57.861Z,993.13
2018-01-05T12:34:07.416Z,993.13
2018-01-05T12:35:16.653Z,993.19
2018-01-05T12:36:25.860Z,993.19
2018-01-05T12:37:34.815Z,993.22
2018-01-05T12:38:43.513Z,993.24
2018-01-05T12:39:52.468Z,993.33
2018-01-05T12:41:01.688Z,993.33
2018-01-05T12:42:11.233Z,993.34
2018-01-05T12:43:20.710Z,993.31
2018-01-05T12:44:29.394Z,993.29
2018-01-05T12:45:38.675Z,993.28
2018-01-05T12:46:47.877Z,993.21
2018-01-05T12:47:57.351Z,993.24
2018-01-05T12:49:06.302Z,993.3
2018-01-05T12:50:15.770Z,993.36
2018-01-05T12:51:24.981Z,993.3
2018-01-05T12:52:33.935Z,993.25
2018-01-05T12:53:42.617Z,993.26
2018-01-05T12:54:51.574Z,993.27
2018-01-05T12:56:00.540Z,993.32
2018-01-05T12:57:09.467Z,993.34
2018-01-05T12:58:18.413Z,993.34
2018-01-05T12:59:27.634Z,993.37
2018-01-05T13:00:36.625Z,993.34
2018-01-05T13:01:45.314Z,993.32
2018-01-05T13:02:54.525Z,993.35
2018-01-05T13:04:03.479Z,993.35
2018-01-05T13:05:12.441Z,993.31
2018-01-05T13:06:21.376Z,993.33
2018-01-05T13:07:30.079Z,993.36
2018-01-05T13:08:38.776Z,993.34
2018-01-05T13:09:47.730Z,993.38
2018-01-05T13:10:57.203Z,993.38
2018-01-05T13:12:06.673Z,993.41
2018-01-05T13:13:15.617Z,993.48
2018-01-05T13:14:24.825Z,993.47
2018-01-05T13:15:33.525Z,993.51
2018-01-05T13:16:42.472Z,993.57
2018-01-05T13:17:51.414Z,993.58
2018-01-05T13:19:00.617Z,993.58
2018-01-05T13:20:09.832Z,993.63
2018-01-05T13:21:19.041Z,993.61
2018-01-05T13:22:28.252Z,993.59
2018-01-05T13:23:37.470Z,993.52
2018-01-05T13:24:46.414Z,993.51
2018-01-05T13:25:55.361Z,993.5
2018-01-05T13:27:04.316Z,993.57
2018-01-05T13:28:13.526Z,993.58
2018-01-05T13:29:22.469Z,993.65
2018-01-05T13:30:31.161Z,993.69
2018-01-05T13:31:39.845Z,993.67
2018-01-05T13:32:49.490Z,993.64
2018-01-05T13:33:58.708Z,993.64
2018-01-05T13:35:07.392Z,993.65
2018-01-05T13:36:16.354Z,993.68
2018-01-05T13:37:25.597Z,993.69
2018-01-05T13:38:35.063Z,993.71
2018-01-05T13:39:44.552Z,993.73
2018-01-05T13:40:53.761Z,993.74
2018-01-05T13:42:02.973Z,993.76
2018-01-05T13:43:12.179Z,993.76
2018-01-05T13:44:21.477Z,993.78
2018-01-05T13:45:30.698Z,993.76
2018-01-05T13:46:39.390Z,993.74
2018-01-05T13:47:48.344Z,993.73
2018-01-05T13:48:57.325Z,993.74
2018-01-05T13:50:06.501Z,993.78
2018-01-05T13:51:15.464Z,993.71
2018-01-05T13:52:24.408Z,993.71
2018-01-05T13:53:33.630Z,993.74
2018-01-05T13:54:42.867Z,993.78
2018-01-05T13:55:52.101Z,993.76
2018-01-05T13:57:01.046Z,993.72
2018-01-05T13:58:10.525Z,993.75
2018-01-05T13:59:19.760Z,993.81
2018-01-05T14:00:28.716Z,993.81
2018-01-05T14:01:37.405Z,993.83
2018-01-05T14:02:46.625Z,993.85
2018-01-05T14:03:55.835Z,993.84
2018-01-05T14:05:04.536Z,993.82
2018-01-05T14:06:13.750Z,993.8
2018-01-05T14:07:23.489Z,993.79
2018-01-05T14:08:32.706Z,993.78
2018-01-05T14:09:41.659Z,993.81
2018-01-05T14:10:51.141Z,993.82
2018-01-05T14:12:00.670Z,993.82
2018-01-05T14:13:09.356Z,993.81
2018-01-05T14:14:18.310Z,993.79
2018-01-05T14:15:27.792Z,993.78
2018-01-05T14:16:37.038Z,993.76
2018-01-05T14:17:46.266Z,993.75
2018-01-05T14:18:55.286Z,993.78
2018-01-05T14:20:04.506Z,993.77
2018-01-05T14:21:13.727Z,993.74
2018-01-05T14:22:23.246Z,993.76
2018-01-05T14:23:32.425Z,993.77
2018-01-05T14:24:41.640Z,993.8
2018-01-05T14:25:51.128Z,993.84